Terminal Aerodrome Forecast
Issued by NWS Albany, NY

Home | Current Version | Previous Version | Text Only | Print | Product List | Glossary On
Versions: 1 2 3 4 5 6 7 8 9 10 11 12 13 14 15 16 17 18 19 20 21 22
000
FTUS41 KALY 270531
TAFALB
TAF
KALB 270531Z 2706/2806 VRB04KT P6SM -SHRA SCT050 OVC070
     FM270800 VRB03KT P6SM BCFG BKN070
     FM271100 VRB03KT P6SM BKN070
     FM271600 22008KT P6SM BKN070 PROB30 2717/2723 3SM -TSRA
      OVC030CB
     FM272300 28005KT P6SM BKN070
     FM280100 28004KT P6SM SCT100=

USA.gov is the U.S. government's official web portal to all federal, state and local government web resources and services.